sensor_id;sensor_type;location;lat;lon;timestamp;temperature;humidity
10538;DHT22;5317;49.048;8.468;2022-12-15T04:34:01;24.30;40.50
10538;DHT22;5317;49.048;8.468;2022-12-15T04:36:52;24.40;40.40
10538;DHT22;5317;49.048;8.468;2022-12-15T04:39:39;24.40;40.40
10538;DHT22;5317;49.048;8.468;2022-12-15T04:42:27;24.40;40.50
10538;DHT22;5317;49.048;8.468;2022-12-15T04:45:16;24.40;40.50
10538;DHT22;5317;49.048;8.468;2022-12-15T04:48:03;24.40;40.50
10538;DHT22;5317;49.048;8.468;2022-12-15T04:50:50;24.40;40.40
10538;DHT22;5317;49.048;8.468;2022-12-15T04:53:35;24.40;40.40
10538;DHT22;5317;49.048;8.468;2022-12-15T04:56:20;24.40;40.40
10538;DHT22;5317;49.048;8.468;2022-12-15T04:59:05;24.40;40.40
10538;DHT22;5317;49.048;8.468;2022-12-15T05:01:49;24.40;40.40
10538;DHT22;5317;49.048;8.468;2022-12-15T05:04:34;24.40;40.30
10538;DHT22;5317;49.048;8.468;2022-12-15T05:07:20;24.40;40.30
10538;DHT22;5317;49.048;8.468;2022-12-15T05:10:08;24.40;40.40
10538;DHT22;5317;49.048;8.468;2022-12-15T05:12:53;24.30;40.30
10538;DHT22;5317;49.048;8.468;2022-12-15T05:15:38;24.40;40.40
10538;DHT22;5317;49.048;8.468;2022-12-15T05:18:23;24.30;40.30
10538;DHT22;5317;49.048;8.468;2022-12-15T05:21:08;24.30;40.30
10538;DHT22;5317;49.048;8.468;2022-12-15T05:23:54;24.40;40.40
10538;DHT22;5317;49.048;8.468;2022-12-15T05:26:39;24.40;40.40
10538;DHT22;5317;49.048;8.468;2022-12-15T05:29:23;24.40;40.40
10538;DHT22;5317;49.048;8.468;2022-12-15T05:32:08;24.30;40.30
10538;DHT22;5317;49.048;8.468;2022-12-15T05:34:37;24.40;40.40
10538;DHT22;5317;49.048;8.468;2022-12-15T05:37:05;24.30;40.30
10538;DHT22;5317;49.048;8.468;2022-12-15T05:39:34;24.30;40.30
10538;DHT22;5317;49.048;8.468;2022-12-15T05:42:02;24.30;40.30
10538;DHT22;5317;49.048;8.468;2022-12-15T05:44:29;24.40;40.40
10538;DHT22;5317;49.048;8.468;2022-12-15T05:46:56;24.30;40.30
10538;DHT22;5317;49.048;8.468;2022-12-15T05:49:23;24.30;40.20
10538;DHT22;5317;49.048;8.468;2022-12-15T05:51:51;24.40;40.30
10538;DHT22;5317;49.048;8.468;2022-12-15T05:54:19;24.30;40.20
10538;DHT22;5317;49.048;8.468;2022-12-15T05:56:48;24.40;40.30
10538;DHT22;5317;49.048;8.468;2022-12-15T05:59:15;24.30;40.20
10538;DHT22;5317;49.048;8.468;2022-12-15T06:01:43;24.40;40.30
10538;DHT22;5317;49.048;8.468;2022-12-15T06:04:11;24.30;40.20
10538;DHT22;5317;49.048;8.468;2022-12-15T06:06:39;24.40;40.30
10538;DHT22;5317;49.048;8.468;2022-12-15T06:09:07;24.30;40.30
10538;DHT22;5317;49.048;8.468;2022-12-15T06:11:35;24.40;40.30
10538;DHT22;5317;49.048;8.468;2022-12-15T06:14:04;24.40;40.30
10538;DHT22;5317;49.048;8.468;2022-12-15T06:16:31;24.30;40.10
10538;DHT22;5317;49.048;8.468;2022-12-15T06:19:02;24.40;39.50
10538;DHT22;5317;49.048;8.468;2022-12-15T06:21:31;24.30;39.10
10538;DHT22;5317;49.048;8.468;2022-12-15T06:24:01;24.30;39.60
10538;DHT22;5317;49.048;8.468;2022-12-15T06:26:31;24.30;38.80
10538;DHT22;5317;49.048;8.468;2022-12-15T06:29:00;24.20;38.50
10538;DHT22;5317;49.048;8.468;2022-12-15T06:31:31;24.20;38.60
10538;DHT22;5317;49.048;8.468;2022-12-15T06:33:58;24.20;38.50
10538;DHT22;5317;49.048;8.468;2022-12-15T06:36:29;24.10;38.50
10538;DHT22;5317;49.048;8.468;2022-12-15T06:38:57;24.10;38.50
10538;DHT22;5317;49.048;8.468;2022-12-15T06:41:26;24.10;38.90
10538;DHT22;5317;49.048;8.468;2022-12-15T06:43:55;24.10;39.80
10538;DHT22;5317;49.048;8.468;2022-12-15T06:46:24;24.10;39.00
10538;DHT22;5317;49.048;8.468;2022-12-15T06:48:54;24.10;39.70
10538;DHT22;5317;49.048;8.468;2022-12-15T06:51:21;24.20;40.10
10538;DHT22;5317;49.048;8.468;2022-12-15T06:53:49;24.20;40.90
10538;DHT22;5317;49.048;8.468;2022-12-15T06:56:20;24.20;40.50
10538;DHT22;5317;49.048;8.468;2022-12-15T06:58:49;24.20;40.60
10538;DHT22;5317;49.048;8.468;2022-12-15T07:01:18;24.20;40.60
10538;DHT22;5317;49.048;8.468;2022-12-15T07:03:46;24.30;40.70
10538;DHT22;5317;49.048;8.468;2022-12-15T07:06:15;24.30;40.80
10538;DHT22;5317;49.048;8.468;2022-12-15T07:08:47;24.20;40.70
10538;DHT22;5317;49.048;8.468;2022-12-15T07:11:17;24.30;40.80
10538;DHT22;5317;49.048;8.468;2022-12-15T07:13:47;24.30;40.80
10538;DHT22;5317;49.048;8.468;2022-12-15T07:16:15;24.30;40.80
10538;DHT22;5317;49.048;8.468;2022-12-15T07:18:43;24.30;40.70
10538;DHT22;5317;49.048;8.468;2022-12-15T07:21:10;24.30;40.70
10538;DHT22;5317;49.048;8.468;2022-12-15T07:23:39;24.30;40.70
10538;DHT22;5317;49.048;8.468;2022-12-15T07:26:08;24.30;40.40
10538;DHT22;5317;49.048;8.468;2022-12-15T07:28:36;24.30;40.60
10538;DHT22;5317;49.048;8.468;2022-12-15T07:31:06;24.30;40.60
10538;DHT22;5317;49.048;8.468;2022-12-15T07:33:36;24.30;40.70
10538;DHT22;5317;49.048;8.468;2022-12-15T07:36:05;24.30;40.60
10538;DHT22;5317;49.048;8.468;2022-12-15T07:38:34;24.20;40.50
10538;DHT22;5317;49.048;8.468;2022-12-15T07:41:04;24.30;40.60
10538;DHT22;5317;49.048;8.468;2022-12-15T07:43:33;24.30;40.60
10538;DHT22;5317;49.048;8.468;2022-12-15T07:46:00;24.20;40.40
10538;DHT22;5317;49.048;8.468;2022-12-15T07:48:28;24.20;41.10
10538;DHT22;5317;49.048;8.468;2022-12-15T07:50:56;24.30;40.50
10538;DHT22;5317;49.048;8.468;2022-12-15T07:53:25;24.30;40.50
10538;DHT22;5317;49.048;8.468;2022-12-15T07:55:54;24.30;40.60
10538;DHT22;5317;49.048;8.468;2022-12-15T07:58:26;24.20;40.50
10538;DHT22;5317;49.048;8.468;2022-12-15T08:00:58;24.20;40.50
10538;DHT22;5317;49.048;8.468;2022-12-15T08:03:26;24.20;40.50
10538;DHT22;5317;49.048;8.468;2022-12-15T08:05:54;24.30;40.60
10538;DHT22;5317;49.048;8.468;2022-12-15T08:08:22;24.30;40.50
10538;DHT22;5317;49.048;8.468;2022-12-15T08:10:49;24.30;40.50
10538;DHT22;5317;49.048;8.468;2022-12-15T08:13:17;24.30;40.50
10538;DHT22;5317;49.048;8.468;2022-12-15T08:15:46;24.30;40.50
10538;DHT22;5317;49.048;8.468;2022-12-15T08:18:28;24.30;40.50
10538;DHT22;5317;49.048;8.468;2022-12-15T08:20:55;24.30;40.50
10538;DHT22;5317;49.048;8.468;2022-12-15T08:23:28;24.30;40.50
10538;DHT22;5317;49.048;8.468;2022-12-15T08:26:01;24.30;40.50
10538;DHT22;5317;49.048;8.468;2022-12-15T08:28:29;24.30;40.50
10538;DHT22;5317;49.048;8.468;2022-12-15T08:31:02;24.30;40.40
10538;DHT22;5317;49.048;8.468;2022-12-15T08:33:30;24.30;40.40
10538;DHT22;5317;49.048;8.468;2022-12-15T08:35:58;24.30;40.40
10538;DHT22;5317;49.048;8.468;2022-12-15T08:38:27;24.30;40.30
10538;DHT22;5317;49.048;8.468;2022-12-15T08:40:55;24.30;40.40
10538;DHT22;5317;49.048;8.468;2022-12-15T08:43:23;24.30;40.40
10538;DHT22;5317;49.048;8.468;2022-12-15T08:45:50;24.30;40.30
10538;DHT22;5317;49.048;8.468;2022-12-15T08:48:19;24.30;40.40
10538;DHT22;5317;49.048;8.468;2022-12-15T08:50:47;24.30;40.40
10538;DHT22;5317;49.048;8.468;2022-12-15T08:53:14;24.30;40.40
10538;DHT22;5317;49.048;8.468;2022-12-15T08:55:42;24.30;40.40
10538;DHT22;5317;49.048;8.468;2022-12-15T08:58:09;24.30;40.40
10538;DHT22;5317;49.048;8.468;2022-12-15T09:00:36;24.30;40.40
10538;DHT22;5317;49.048;8.468;2022-12-15T09:03:03;24.30;40.40
10538;DHT22;5317;49.048;8.468;2022-12-15T09:05:35;24.30;40.40
10538;DHT22;5317;49.048;8.468;2022-12-15T09:08:03;24.30;40.40
10538;DHT22;5317;49.048;8.468;2022-12-15T09:10:31;24.40;40.50
10538;DHT22;5317;49.048;8.468;2022-12-15T09:12:58;24.30;40.30
10538;DHT22;5317;49.048;8.468;2022-12-15T09:15:26;24.30;40.30
10538;DHT22;5317;49.048;8.468;2022-12-15T09:17:53;24.40;40.40
10538;DHT22;5317;49.048;8.468;2022-12-15T09:20:20;24.40;40.40
10538;DHT22;5317;49.048;8.468;2022-12-15T09:22:49;24.40;40.40
10538;DHT22;5317;49.048;8.468;2022-12-15T09:25:16;24.40;40.40
10538;DHT22;5317;49.048;8.468;2022-12-15T09:27:44;24.40;40.30
10538;DHT22;5317;49.048;8.468;2022-12-15T09:30:12;24.40;40.30
10538;DHT22;5317;49.048;8.468;2022-12-15T09:32:40;24.40;40.40
10538;DHT22;5317;49.048;8.468;2022-12-15T09:35:07;24.40;40.30
10538;DHT22;5317;49.048;8.468;2022-12-15T09:37:35;24.40;40.30
10538;DHT22;5317;49.048;8.468;2022-12-15T09:40:05;24.40;40.30
10538;DHT22;5317;49.048;8.468;2022-12-15T09:42:35;24.40;40.40
10538;DHT22;5317;49.048;8.468;2022-12-15T09:45:06;24.40;40.30
10538;DHT22;5317;49.048;8.468;2022-12-15T09:47:44;24.40;40.40
10538;DHT22;5317;49.048;8.468;2022-12-15T09:50:23;24.40;40.40
10538;DHT22;5317;49.048;8.468;2022-12-15T09:52:56;24.40;40.30
10538;DHT22;5317;49.048;8.468;2022-12-15T09:55:27;24.40;40.40
10538;DHT22;5317;49.048;8.468;2022-12-15T09:57:59;24.40;40.30
10538;DHT22;5317;49.048;8.468;2022-12-15T10:00:33;24.40;40.40
10538;DHT22;5317;49.048;8.468;2022-12-15T10:03:28;24.50;40.40
10538;DHT22;5317;49.048;8.468;2022-12-15T10:06:08;24.40;40.30
10538;DHT22;5317;49.048;8.468;2022-12-15T10:08:39;24.40;40.40
10538;DHT22;5317;49.048;8.468;2022-12-15T10:11:39;24.50;40.40
10538;DHT22;5317;49.048;8.468;2022-12-15T10:14:20;24.50;40.40
10538;DHT22;5317;49.048;8.468;2022-12-15T10:17:01;24.50;40.40
10538;DHT22;5317;49.048;8.468;2022-12-15T10:19:38;24.50;40.30
10538;DHT22;5317;49.048;8.468;2022-12-15T10:22:11;24.40;40.30
10538;DHT22;5317;49.048;8.468;2022-12-15T10:24:42;24.50;40.30
10538;DHT22;5317;49.048;8.468;2022-12-15T10:27:21;24.50;40.30
10538;DHT22;5317;49.048;8.468;2022-12-15T10:30:02;24.50;40.40
10538;DHT22;5317;49.048;8.468;2022-12-15T10:32:41;24.50;40.30
10538;DHT22;5317;49.048;8.468;2022-12-15T10:35:15;24.50;40.30
10538;DHT22;5317;49.048;8.468;2022-12-15T10:37:46;24.40;40.30
10538;DHT22;5317;49.048;8.468;2022-12-15T10:40:16;24.40;40.20
10538;DHT22;5317;49.048;8.468;2022-12-15T10:42:48;24.50;40.40
10538;DHT22;5317;49.048;8.468;2022-12-15T10:45:33;24.50;40.30
10538;DHT22;5317;49.048;8.468;2022-12-15T10:48:04;24.40;40.30
10538;DHT22;5317;49.048;8.468;2022-12-15T10:50:33;24.50;40.30
10538;DHT22;5317;49.048;8.468;2022-12-15T10:53:07;24.40;40.20
10538;DHT22;5317;49.048;8.468;2022-12-15T10:55:37;24.50;40.30
10538;DHT22;5317;49.048;8.468;2022-12-15T10:58:16;24.50;40.30
10538;DHT22;5317;49.048;8.468;2022-12-15T11:00:45;24.50;40.20
10538;DHT22;5317;49.048;8.468;2022-12-15T11:03:22;24.50;40.30
10538;DHT22;5317;49.048;8.468;2022-12-15T11:05:52;24.50;40.20
10538;DHT22;5317;49.048;8.468;2022-12-15T11:08:22;24.50;40.30
10538;DHT22;5317;49.048;8.468;2022-12-15T11:10:53;24.50;40.30
10538;DHT22;5317;49.048;8.468;2022-12-15T11:13:41;24.50;40.30
10538;DHT22;5317;49.048;8.468;2022-12-15T11:16:30;24.40;40.30
10538;DHT22;5317;49.048;8.468;2022-12-15T11:19:12;24.40;40.10
10538;DHT22;5317;49.048;8.468;2022-12-15T11:21:50;24.50;40.30
10538;DHT22;5317;49.048;8.468;2022-12-15T11:24:28;24.40;40.20
10538;DHT22;5317;49.048;8.468;2022-12-15T11:27:10;24.50;40.30
10538;DHT22;5317;49.048;8.468;2022-12-15T11:29:53;24.40;40.30
10538;DHT22;5317;49.048;8.468;2022-12-15T11:32:27;24.40;40.20
10538;DHT22;5317;49.048;8.468;2022-12-15T11:34:59;24.40;40.20
10538;DHT22;5317;49.048;8.468;2022-12-15T11:37:38;24.40;40.20
10538;DHT22;5317;49.048;8.468;2022-12-15T11:40:28;24.40;40.20
10538;DHT22;5317;49.048;8.468;2022-12-15T11:43:20;24.40;40.30
10538;DHT22;5317;49.048;8.468;2022-12-15T11:46:14;24.40;40.30
10538;DHT22;5317;49.048;8.468;2022-12-15T11:49:04;24.40;40.30
10538;DHT22;5317;49.048;8.468;2022-12-15T11:51:45;24.40;40.90
10538;DHT22;5317;49.048;8.468;2022-12-15T11:54:22;24.40;40.40
10538;DHT22;5317;49.048;8.468;2022-12-15T11:57:01;24.40;40.40
10538;DHT22;5317;49.048;8.468;2022-12-15T11:59:58;24.30;40.30
10538;DHT22;5317;49.048;8.468;2022-12-15T12:02:45;24.30;40.30
10538;DHT22;5317;49.048;8.468;2022-12-15T12:05:46;24.30;40.30
10538;DHT22;5317;49.048;8.468;2022-12-15T12:08:38;24.30;40.30
10538;DHT22;5317;49.048;8.468;2022-12-15T12:11:36;24.30;40.30
10538;DHT22;5317;49.048;8.468;2022-12-15T12:14:23;24.30;40.30
10538;DHT22;5317;49.048;8.468;2022-12-15T12:17:05;24.30;40.30
10538;DHT22;5317;49.048;8.468;2022-12-15T12:19:41;24.30;40.30
10538;DHT22;5317;49.048;8.468;2022-12-15T12:22:21;24.30;40.20
10538;DHT22;5317;49.048;8.468;2022-12-15T12:24:55;24.30;40.30
10538;DHT22;5317;49.048;8.468;2022-12-15T12:27:32;24.30;40.30
10538;DHT22;5317;49.048;8.468;2022-12-15T12:30:11;24.30;40.20
10538;DHT22;5317;49.048;8.468;2022-12-15T12:32:45;24.30;40.20
10538;DHT22;5317;49.048;8.468;2022-12-15T12:35:24;24.30;40.20
10538;DHT22;5317;49.048;8.468;2022-12-15T12:37:59;24.40;40.20
10538;DHT22;5317;49.048;8.468;2022-12-15T12:40:40;24.40;40.20
10538;DHT22;5317;49.048;8.468;2022-12-15T12:43:25;24.30;40.10
10538;DHT22;5317;49.048;8.468;2022-12-15T12:46:01;24.40;40.10
10538;DHT22;5317;49.048;8.468;2022-12-15T12:48:45;24.40;40.10
10538;DHT22;5317;49.048;8.468;2022-12-15T12:51:23;24.40;40.00
10538;DHT22;5317;49.048;8.468;2022-12-15T12:53:55;24.40;40.00
10538;DHT22;5317;49.048;8.468;2022-12-15T12:56:31;24.40;39.90
10538;DHT22;5317;49.048;8.468;2022-12-15T12:59:04;24.40;39.90
10538;DHT22;5317;49.048;8.468;2022-12-15T13:01:53;24.40;39.90
10538;DHT22;5317;49.048;8.468;2022-12-15T13:04:38;24.40;39.80
10538;DHT22;5317;49.048;8.468;2022-12-15T13:07:28;24.40;39.80
10538;DHT22;5317;49.048;8.468;2022-12-15T13:10:15;24.40;39.80
10538;DHT22;5317;49.048;8.468;2022-12-15T13:12:48;24.40;39.70
10538;DHT22;5317;49.048;8.468;2022-12-15T13:18:14;24.40;39.80
10538;DHT22;5317;49.048;8.468;2022-12-15T13:20:44;24.40;39.80
10538;DHT22;5317;49.048;8.468;2022-12-15T13:23:36;24.40;39.80
10538;DHT22;5317;49.048;8.468;2022-12-15T13:26:14;24.40;39.70
10538;DHT22;5317;49.048;8.468;2022-12-15T13:28:51;24.40;39.60
10538;DHT22;5317;49.048;8.468;2022-12-15T13:31:39;24.40;39.60
10538;DHT22;5317;49.048;8.468;2022-12-15T13:34:21;24.40;39.60
10538;DHT22;5317;49.048;8.468;2022-12-15T13:36:58;24.40;39.60
10538;DHT22;5317;49.048;8.468;2022-12-15T13:39:53;24.40;39.70
10538;DHT22;5317;49.048;8.468;2022-12-15T13:42:31;24.40;39.60
10538;DHT22;5317;49.048;8.468;2022-12-15T13:48:30;24.50;39.70
10538;DHT22;5317;49.048;8.468;2022-12-15T13:51:25;24.40;39.60
10538;DHT22;5317;49.048;8.468;2022-12-15T13:54:00;24.40;39.60
10538;DHT22;5317;49.048;8.468;2022-12-15T13:56:44;24.50;39.80
10538;DHT22;5317;49.048;8.468;2022-12-15T13:59:24;24.40;39.60
10538;DHT22;5317;49.048;8.468;2022-12-15T14:01:57;24.40;39.60
10538;DHT22;5317;49.048;8.468;2022-12-15T14:04:24;24.50;39.60
10538;DHT22;5317;49.048;8.468;2022-12-15T14:06:54;24.50;39.70
10538;DHT22;5317;49.048;8.468;2022-12-15T14:09:26;24.40;39.60
10538;DHT22;5317;49.048;8.468;2022-12-15T14:11:58;24.40;39.70
10538;DHT22;5317;49.048;8.468;2022-12-15T14:14:30;24.40;39.80
10538;DHT22;5317;49.048;8.468;2022-12-15T14:17:02;24.40;39.70
10538;DHT22;5317;49.048;8.468;2022-12-15T14:19:38;24.40;39.90
10538;DHT22;5317;49.048;8.468;2022-12-15T14:22:22;24.40;39.70
10538;DHT22;5317;49.048;8.468;2022-12-15T14:24:52;24.40;39.60
10538;DHT22;5317;49.048;8.468;2022-12-15T14:27:27;24.40;39.70
10538;DHT22;5317;49.048;8.468;2022-12-15T14:30:14;24.40;39.80
10538;DHT22;5317;49.048;8.468;2022-12-15T14:32:49;24.40;39.80
10538;DHT22;5317;49.048;8.468;2022-12-15T14:35:26;24.40;39.80
10538;DHT22;5317;49.048;8.468;2022-12-15T14:37:58;24.40;39.80
10538;DHT22;5317;49.048;8.468;2022-12-15T14:40:29;24.40;39.80
10538;DHT22;5317;49.048;8.468;2022-12-15T14:42:58;24.40;39.80
10538;DHT22;5317;49.048;8.468;2022-12-15T14:45:27;24.40;39.80
10538;DHT22;5317;49.048;8.468;2022-12-15T14:48:05;24.40;39.80
10538;DHT22;5317;49.048;8.468;2022-12-15T14:50:34;24.40;39.80
10538;DHT22;5317;49.048;8.468;2022-12-15T14:53:05;24.40;39.80
10538;DHT22;5317;49.048;8.468;2022-12-15T14:55:40;24.40;39.80
10538;DHT22;5317;49.048;8.468;2022-12-15T14:58:28;24.40;39.80
10538;DHT22;5317;49.048;8.468;2022-12-15T15:00:57;24.40;39.80
10538;DHT22;5317;49.048;8.468;2022-12-15T15:03:34;24.40;39.70
10538;DHT22;5317;49.048;8.468;2022-12-15T15:06:04;24.40;39.80
10538;DHT22;5317;49.048;8.468;2022-12-15T15:08:46;24.40;39.80
10538;DHT22;5317;49.048;8.468;2022-12-15T15:11:23;24.40;39.80
10538;DHT22;5317;49.048;8.468;2022-12-15T15:13:58;24.40;39.80
10538;DHT22;5317;49.048;8.468;2022-12-15T15:16:28;24.40;39.80
10538;DHT22;5317;49.048;8.468;2022-12-15T15:18:58;24.40;39.80
10538;DHT22;5317;49.048;8.468;2022-12-15T15:21:29;24.40;39.80
10538;DHT22;5317;49.048;8.468;2022-12-15T15:24:01;24.40;39.80
10538;DHT22;5317;49.048;8.468;2022-12-15T15:26:30;24.40;39.80
10538;DHT22;5317;49.048;8.468;2022-12-15T15:28:59;24.40;39.70
10538;DHT22;5317;49.048;8.468;2022-12-15T15:31:29;24.40;39.80
10538;DHT22;5317;49.048;8.468;2022-12-15T15:34:01;24.40;39.80
10538;DHT22;5317;49.048;8.468;2022-12-15T15:36:31;24.40;39.70
10538;DHT22;5317;49.048;8.468;2022-12-15T15:39:08;24.40;39.80
10538;DHT22;5317;49.048;8.468;2022-12-15T15:41:38;24.40;39.80
10538;DHT22;5317;49.048;8.468;2022-12-15T15:44:11;24.40;39.70
10538;DHT22;5317;49.048;8.468;2022-12-15T15:46:44;24.40;39.80
10538;DHT22;5317;49.048;8.468;2022-12-15T15:49:16;24.40;39.80
10538;DHT22;5317;49.048;8.468;2022-12-15T15:51:45;24.40;39.80
10538;DHT22;5317;49.048;8.468;2022-12-15T15:54:14;24.40;39.70
10538;DHT22;5317;49.048;8.468;2022-12-15T15:56:46;24.40;39.80
10538;DHT22;5317;49.048;8.468;2022-12-15T15:59:16;24.40;39.70
10538;DHT22;5317;49.048;8.468;2022-12-15T16:01:50;24.40;39.80
10538;DHT22;5317;49.048;8.468;2022-12-15T16:04:18;24.40;39.80
10538;DHT22;5317;49.048;8.468;2022-12-15T16:06:46;24.40;39.70
10538;DHT22;5317;49.048;8.468;2022-12-15T16:09:15;24.40;39.70
10538;DHT22;5317;49.048;8.468;2022-12-15T16:11:43;24.40;39.70
10538;DHT22;5317;49.048;8.468;2022-12-15T16:14:14;24.40;39.80
10538;DHT22;5317;49.048;8.468;2022-12-15T16:16:43;24.40;40.40
10538;DHT22;5317;49.048;8.468;2022-12-15T16:19:11;24.40;39.70
10538;DHT22;5317;49.048;8.468;2022-12-15T16:21:39;24.40;39.80
10538;DHT22;5317;49.048;8.468;2022-12-15T16:24:12;24.40;39.80
10538;DHT22;5317;49.048;8.468;2022-12-15T16:26:46;24.40;39.70
10538;DHT22;5317;49.048;8.468;2022-12-15T16:29:17;24.40;39.60
10538;DHT22;5317;49.048;8.468;2022-12-15T16:31:46;24.40;39.70
10538;DHT22;5317;49.048;8.468;2022-12-15T16:34:14;24.40;39.60
10538;DHT22;5317;49.048;8.468;2022-12-15T16:36:44;24.40;39.60
10538;DHT22;5317;49.048;8.468;2022-12-15T16:39:23;24.40;39.60
10538;DHT22;5317;49.048;8.468;2022-12-15T16:41:53;24.40;39.60
10538;DHT22;5317;49.048;8.468;2022-12-15T16:44:23;24.40;39.60
10538;DHT22;5317;49.048;8.468;2022-12-15T16:46:51;24.40;39.60
10538;DHT22;5317;49.048;8.468;2022-12-15T16:49:19;24.40;39.60
10538;DHT22;5317;49.048;8.468;2022-12-15T16:51:50;24.40;39.60
10538;DHT22;5317;49.048;8.468;2022-12-15T16:54:21;24.40;39.60
10538;DHT22;5317;49.048;8.468;2022-12-15T16:56:50;24.40;39.60
10538;DHT22;5317;49.048;8.468;2022-12-15T16:59:19;24.40;39.60
10538;DHT22;5317;49.048;8.468;2022-12-15T17:01:50;24.40;39.60
10538;DHT22;5317;49.048;8.468;2022-12-15T17:04:17;24.40;39.60
10538;DHT22;5317;49.048;8.468;2022-12-15T17:06:46;24.40;39.60
10538;DHT22;5317;49.048;8.468;2022-12-15T17:09:17;24.40;39.60
10538;DHT22;5317;49.048;8.468;2022-12-15T17:11:48;24.40;39.60
10538;DHT22;5317;49.048;8.468;2022-12-15T17:14:16;24.40;39.60
10538;DHT22;5317;49.048;8.468;2022-12-15T17:16:43;24.40;39.60
10538;DHT22;5317;49.048;8.468;2022-12-15T17:19:12;24.40;39.50
10538;DHT22;5317;49.048;8.468;2022-12-15T17:21:43;24.40;39.50
10538;DHT22;5317;49.048;8.468;2022-12-15T17:24:18;24.40;39.60
10538;DHT22;5317;49.048;8.468;2022-12-15T17:26:47;24.40;39.60
10538;DHT22;5317;49.048;8.468;2022-12-15T17:29:16;24.40;39.60
10538;DHT22;5317;49.048;8.468;2022-12-15T17:31:46;24.40;39.60
10538;DHT22;5317;49.048;8.468;2022-12-15T17:34:24;24.40;39.50
10538;DHT22;5317;49.048;8.468;2022-12-15T17:36:56;24.40;39.60
10538;DHT22;5317;49.048;8.468;2022-12-15T17:39:25;24.40;39.60
10538;DHT22;5317;49.048;8.468;2022-12-15T17:41:54;24.40;39.60
10538;DHT22;5317;49.048;8.468;2022-12-15T17:44:23;24.30;38.80
10538;DHT22;5317;49.048;8.468;2022-12-15T17:46:52;24.20;39.40
10538;DHT22;5317;49.048;8.468;2022-12-15T17:49:21;24.20;39.40
10538;DHT22;5317;49.048;8.468;2022-12-15T17:51:48;24.20;39.50
10538;DHT22;5317;49.048;8.468;2022-12-15T17:54:17;24.20;39.60
10538;DHT22;5317;49.048;8.468;2022-12-15T17:56:47;24.20;39.70
10538;DHT22;5317;49.048;8.468;2022-12-15T17:59:16;24.20;39.70
10538;DHT22;5317;49.048;8.468;2022-12-15T18:01:46;24.20;39.80
10538;DHT22;5317;49.048;8.468;2022-12-15T18:04:13;24.30;40.40
10538;DHT22;5317;49.048;8.468;2022-12-15T18:06:43;24.30;40.50
10538;DHT22;5317;49.048;8.468;2022-12-15T18:09:14;24.30;39.80
10538;DHT22;5317;49.048;8.468;2022-12-15T18:11:43;24.30;40.50
10538;DHT22;5317;49.048;8.468;2022-12-15T18:14:13;24.30;39.90
10538;DHT22;5317;49.048;8.468;2022-12-15T18:16:41;24.30;39.90
10538;DHT22;5317;49.048;8.468;2022-12-15T18:19:09;24.30;40.00
10538;DHT22;5317;49.048;8.468;2022-12-15T18:21:36;24.30;39.90
10538;DHT22;5317;49.048;8.468;2022-12-15T18:24:10;24.30;39.90
10538;DHT22;5317;49.048;8.468;2022-12-15T18:26:46;24.30;40.00
10538;DHT22;5317;49.048;8.468;2022-12-15T18:29:18;24.30;39.90
10538;DHT22;5317;49.048;8.468;2022-12-15T18:31:45;24.30;40.00
10538;DHT22;5317;49.048;8.468;2022-12-15T18:34:16;24.30;40.00
10538;DHT22;5317;49.048;8.468;2022-12-15T18:36:51;24.30;40.00
10538;DHT22;5317;49.048;8.468;2022-12-15T18:39:21;24.30;39.90
10538;DHT22;5317;49.048;8.468;2022-12-15T18:41:50;24.30;40.10
10538;DHT22;5317;49.048;8.468;2022-12-15T18:44:24;24.30;40.10
10538;DHT22;5317;49.048;8.468;2022-12-15T18:46:53;24.30;40.00
10538;DHT22;5317;49.048;8.468;2022-12-15T18:49:30;24.30;40.10
10538;DHT22;5317;49.048;8.468;2022-12-15T18:51:57;24.30;40.00
10538;DHT22;5317;49.048;8.468;2022-12-15T18:54:25;24.20;39.90
10538;DHT22;5317;49.048;8.468;2022-12-15T18:56:53;24.30;40.00
10538;DHT22;5317;49.048;8.468;2022-12-15T18:59:26;24.30;40.00
10538;DHT22;5317;49.048;8.468;2022-12-15T19:01:53;24.20;39.90
10538;DHT22;5317;49.048;8.468;2022-12-15T19:04:20;24.30;40.00
10538;DHT22;5317;49.048;8.468;2022-12-15T19:06:53;24.20;39.80
10538;DHT22;5317;49.048;8.468;2022-12-15T19:09:21;24.20;39.80
10538;DHT22;5317;49.048;8.468;2022-12-15T19:11:50;24.20;39.80
10538;DHT22;5317;49.048;8.468;2022-12-15T19:14:37;24.20;39.80
10538;DHT22;5317;49.048;8.468;2022-12-15T19:17:13;24.20;39.90
10538;DHT22;5317;49.048;8.468;2022-12-15T19:19:59;24.20;39.90
10538;DHT22;5317;49.048;8.468;2022-12-15T19:22:58;24.20;39.90
10538;DHT22;5317;49.048;8.468;2022-12-15T19:25:28;24.20;39.80
10538;DHT22;5317;49.048;8.468;2022-12-15T19:28:01;24.20;39.90
10538;DHT22;5317;49.048;8.468;2022-12-15T19:30:30;24.20;39.80
10538;DHT22;5317;49.048;8.468;2022-12-15T19:33:09;24.30;39.90
10538;DHT22;5317;49.048;8.468;2022-12-15T19:35:46;24.20;40.50
10538;DHT22;5317;49.048;8.468;2022-12-15T19:38:22;24.30;39.90
10538;DHT22;5317;49.048;8.468;2022-12-15T19:40:54;24.20;39.80
10538;DHT22;5317;49.048;8.468;2022-12-15T19:43:23;24.30;39.80
10538;DHT22;5317;49.048;8.468;2022-12-15T19:45:57;24.30;39.80
10538;DHT22;5317;49.048;8.468;2022-12-15T19:48:24;24.30;39.80
10538;DHT22;5317;49.048;8.468;2022-12-15T19:51:00;24.30;39.80
10538;DHT22;5317;49.048;8.468;2022-12-15T19:53:40;24.30;39.70
10538;DHT22;5317;49.048;8.468;2022-12-15T19:56:11;24.30;39.80
10538;DHT22;5317;49.048;8.468;2022-12-15T19:58:42;24.30;39.80
10538;DHT22;5317;49.048;8.468;2022-12-15T20:01:11;24.30;39.80
10538;DHT22;5317;49.048;8.468;2022-12-15T20:03:47;24.30;39.80
10538;DHT22;5317;49.048;8.468;2022-12-15T20:06:18;24.30;39.70
10538;DHT22;5317;49.048;8.468;2022-12-15T20:08:49;24.30;39.80
10538;DHT22;5317;49.048;8.468;2022-12-15T20:11:22;24.30;39.80
10538;DHT22;5317;49.048;8.468;2022-12-15T20:13:52;24.30;39.80
10538;DHT22;5317;49.048;8.468;2022-12-15T20:16:26;24.30;39.80
10538;DHT22;5317;49.048;8.468;2022-12-15T20:18:54;24.30;39.70
10538;DHT22;5317;49.048;8.468;2022-12-15T20:21:32;24.30;39.70
10538;DHT22;5317;49.048;8.468;2022-12-15T20:24:05;24.30;39.80
10538;DHT22;5317;49.048;8.468;2022-12-15T20:26:41;24.30;39.80
10538;DHT22;5317;49.048;8.468;2022-12-15T20:29:29;24.20;39.80
10538;DHT22;5317;49.048;8.468;2022-12-15T20:31:58;24.20;39.80
10538;DHT22;5317;49.048;8.468;2022-12-15T20:34:25;24.30;39.80
10538;DHT22;5317;49.048;8.468;2022-12-15T20:36:53;24.30;39.80
10538;DHT22;5317;49.048;8.468;2022-12-15T20:39:26;24.30;39.80
10538;DHT22;5317;49.048;8.468;2022-12-15T20:41:55;24.20;39.80
10538;DHT22;5317;49.048;8.468;2022-12-15T20:44:29;24.30;39.80
10538;DHT22;5317;49.048;8.468;2022-12-15T20:46:57;24.30;39.80
10538;DHT22;5317;49.048;8.468;2022-12-15T20:49:24;24.30;39.80
10538;DHT22;5317;49.048;8.468;2022-12-15T20:51:52;24.30;39.80
10538;DHT22;5317;49.048;8.468;2022-12-15T20:54:23;24.30;39.80
10538;DHT22;5317;49.048;8.468;2022-12-15T20:56:56;24.30;39.80
10538;DHT22;5317;49.048;8.468;2022-12-15T20:59:23;24.30;39.70
10538;DHT22;5317;49.048;8.468;2022-12-15T21:01:58;24.30;39.70
10538;DHT22;5317;49.048;8.468;2022-12-15T21:04:28;24.30;39.80